createdAt,value
2023-04-23T00:01:19.094Z,12.52
2023-04-23T00:03:49.994Z,12.51
2023-04-23T00:06:18.886Z,12.52
2023-04-23T00:08:48.534Z,12.48
2023-04-23T00:11:18.233Z,12.52
2023-04-23T00:13:47.448Z,12.52
2023-04-23T00:16:16.331Z,12.52
2023-04-23T00:18:44.166Z,12.51
2023-04-23T00:21:12.037Z,12.52
2023-04-23T00:23:40.613Z,12.46
2023-04-23T00:26:08.459Z,12.48
2023-04-23T00:28:38.007Z,12.44
2023-04-23T00:31:05.898Z,12.47
2023-04-23T00:33:33.805Z,12.45
2023-04-23T00:36:01.653Z,12.44
2023-04-23T00:38:29.662Z,12.42
2023-04-23T00:40:57.522Z,12.40
2023-04-23T00:43:25.424Z,12.42
2023-04-23T00:45:54.915Z,12.39
2023-04-23T00:48:23.465Z,12.42
2023-04-23T00:50:59.509Z,12.41
2023-04-23T00:53:27.664Z,12.37
2023-04-23T00:55:55.794Z,12.37
2023-04-23T00:58:24.000Z,12.35
2023-04-23T01:00:52.534Z,12.37
2023-04-23T01:03:22.851Z,12.36
2023-04-23T01:05:51.682Z,12.34
2023-04-23T01:08:24.428Z,12.37
2023-04-23T01:10:53.401Z,12.36
2023-04-23T01:13:22.254Z,12.33
2023-04-23T01:15:50.718Z,12.30
2023-04-23T01:18:20.039Z,12.26
2023-04-23T01:20:49.586Z,12.24
2023-04-23T01:23:18.947Z,12.26
2023-04-23T01:25:47.704Z,12.23
2023-04-23T01:28:15.781Z,12.23
2023-04-23T01:30:44.783Z,12.20
2023-04-23T01:33:12.779Z,12.19
2023-04-23T01:35:41.872Z,12.16
2023-04-23T01:38:12.069Z,12.16
2023-04-23T01:40:41.747Z,12.11
2023-04-23T01:43:11.085Z,12.12
2023-04-23T01:45:39.152Z,12.10
2023-04-23T01:48:07.160Z,12.08
2023-04-23T01:50:36.191Z,12.07
2023-04-23T01:53:04.104Z,12.05
2023-04-23T01:55:32.971Z,12.02
2023-04-23T01:58:02.165Z,12.00
2023-04-23T02:00:30.051Z,11.96
2023-04-23T02:02:58.226Z,12.00
2023-04-23T02:05:26.819Z,11.98
2023-04-23T02:07:57.011Z,11.91
2023-04-23T02:10:25.800Z,11.94
2023-04-23T02:12:53.657Z,11.93
2023-04-23T02:15:22.920Z,11.91
2023-04-23T02:17:52.363Z,11.89
2023-04-23T02:20:21.821Z,11.89
2023-04-23T02:22:51.585Z,11.90
2023-04-23T02:25:21.949Z,11.90
2023-04-23T02:27:50.671Z,11.89
2023-04-23T02:30:18.537Z,11.88
2023-04-23T02:32:48.018Z,11.83
2023-04-23T02:35:15.989Z,11.81
2023-04-23T02:37:43.822Z,11.82
2023-04-23T02:40:13.075Z,11.80
2023-04-23T02:42:43.230Z,11.77
2023-04-23T02:45:12.566Z,11.75
2023-04-23T02:47:40.596Z,11.77
2023-04-23T02:50:10.702Z,11.73
2023-04-23T02:52:38.564Z,11.67
2023-04-23T02:55:08.420Z,11.66
2023-04-23T02:57:36.772Z,11.63
2023-04-23T03:00:07.382Z,11.65
2023-04-23T03:02:41.022Z,11.63
2023-04-23T03:05:11.186Z,11.64
2023-04-23T03:07:39.330Z,11.61
2023-04-23T03:10:08.381Z,11.56
2023-04-23T03:12:36.767Z,11.53
2023-04-23T03:15:04.980Z,11.54
2023-04-23T03:17:35.180Z,11.52
2023-04-23T03:20:04.965Z,11.50
2023-04-23T03:22:34.470Z,11.48
2023-04-23T03:25:02.573Z,11.50
2023-04-23T03:27:30.454Z,11.46
2023-04-23T03:29:58.603Z,11.45
2023-04-23T03:32:26.584Z,11.43
2023-04-23T03:34:54.502Z,11.43
2023-04-23T03:37:23.575Z,11.43
2023-04-23T03:39:53.180Z,11.42
2023-04-23T03:42:21.610Z,11.40
2023-04-23T03:44:50.570Z,11.41
2023-04-23T03:47:18.659Z,11.42
2023-04-23T03:49:46.690Z,11.34
2023-04-23T03:52:14.868Z,11.36
2023-04-23T03:54:43.434Z,11.36
2023-04-23T03:57:19.567Z,11.34
2023-04-23T03:59:56.537Z,11.31
2023-04-23T04:02:26.067Z,11.30
2023-04-23T04:04:55.243Z,11.28
2023-04-23T04:07:25.990Z,11.24
2023-04-23T04:09:57.140Z,11.18
2023-04-23T04:12:28.514Z,11.19
2023-04-23T04:14:56.411Z,11.18
2023-04-23T04:17:24.357Z,11.16
2023-04-23T04:19:52.321Z,11.17
2023-04-23T04:22:20.635Z,11.12
2023-04-23T04:24:48.744Z,11.15
2023-04-23T04:27:16.999Z,11.12
2023-04-23T04:29:46.205Z,11.10
2023-04-23T04:32:14.705Z,11.08
2023-04-23T04:34:43.070Z,11.07
2023-04-23T04:37:11.651Z,11.10
2023-04-23T04:39:40.077Z,11.09
2023-04-23T04:42:07.993Z,11.06
2023-04-23T04:44:37.540Z,11.06
2023-04-23T04:47:08.089Z,11.06
2023-04-23T04:49:36.243Z,11.07
2023-04-23T04:52:04.236Z,11.06
2023-04-23T04:54:32.195Z,11.05
2023-04-23T04:57:00.115Z,11.06
2023-04-23T04:59:28.091Z,11.00
2023-04-23T05:01:56.093Z,11.04
2023-04-23T05:04:25.362Z,11.08
2023-04-23T05:06:53.257Z,11.10
2023-04-23T05:09:21.125Z,11.05
2023-04-23T05:11:49.496Z,11.09
2023-04-23T05:14:17.314Z,11.12
2023-04-23T05:16:45.627Z,11.13
2023-04-23T05:19:13.544Z,11.13
2023-04-23T05:21:43.264Z,11.15
2023-04-23T05:24:11.360Z,11.17
2023-04-23T05:26:39.296Z,11.19
2023-04-23T05:29:07.322Z,11.21
2023-04-23T05:31:35.378Z,11.26
2023-04-23T05:34:03.292Z,11.31
2023-04-23T05:36:31.327Z,11.34
2023-04-23T05:39:00.592Z,11.36
2023-04-23T05:41:28.706Z,11.43
2023-04-23T05:43:56.613Z,11.40
2023-04-23T05:46:24.538Z,11.47
2023-04-23T05:48:53.648Z,11.50
2023-04-23T05:51:21.781Z,11.51
2023-04-23T05:53:49.963Z,11.53
2023-04-23T05:56:19.170Z,11.61
2023-04-23T05:58:47.604Z,11.64
2023-04-23T06:01:15.748Z,11.66
2023-04-23T06:03:45.540Z,11.73
2023-04-23T06:06:13.782Z,11.76
2023-04-23T06:08:41.683Z,11.78
2023-04-23T06:11:09.627Z,11.82
2023-04-23T06:13:43.540Z,11.87
2023-04-23T06:16:11.769Z,11.90
2023-04-23T06:18:40.220Z,11.88
2023-04-23T06:21:08.208Z,11.90
2023-04-23T06:23:36.848Z,11.87
2023-04-23T06:26:05.802Z,11.93
2023-04-23T06:28:33.902Z,11.92
2023-04-23T06:31:29.518Z,11.95
2023-04-23T06:33:57.600Z,12.02
2023-04-23T06:36:25.551Z,12.06
2023-04-23T06:38:53.588Z,12.13
2023-04-23T06:41:21.848Z,12.19
2023-04-23T06:44:01.312Z,12.14
2023-04-23T06:46:34.906Z,12.11
2023-04-23T06:49:02.851Z,12.20
2023-04-23T06:51:32.066Z,12.31
2023-04-23T06:54:00.128Z,12.35
2023-04-23T06:56:28.129Z,12.41
2023-04-23T06:58:56.232Z,12.45
2023-04-23T07:01:24.320Z,12.43
2023-04-23T07:03:54.604Z,12.50
2023-04-23T07:06:22.700Z,12.62
2023-04-23T07:08:50.737Z,12.63
2023-04-23T07:11:18.590Z,12.66
2023-04-23T07:13:46.724Z,12.60
2023-04-23T07:16:14.606Z,12.62
2023-04-23T07:18:42.431Z,12.63
2023-04-23T07:21:11.795Z,12.61
2023-04-23T07:23:39.693Z,12.60
2023-04-23T07:26:07.781Z,12.63
2023-04-23T07:28:35.835Z,12.69
2023-04-23T07:31:04.138Z,12.81
2023-04-23T07:33:32.397Z,12.92
2023-04-23T07:36:00.286Z,12.88
2023-04-23T07:38:29.725Z,12.98
2023-04-23T07:40:58.053Z,13.01
2023-04-23T07:43:26.129Z,13.03
2023-04-23T07:45:54.010Z,13.03
2023-04-23T07:48:21.904Z,12.95
2023-04-23T07:50:49.785Z,13.07
2023-04-23T07:53:17.895Z,13.20
2023-04-23T07:55:47.118Z,13.23
2023-04-23T07:58:15.160Z,13.32
2023-04-23T08:00:43.139Z,13.41
2023-04-23T08:03:11.104Z,13.36
2023-04-23T08:05:41.270Z,13.34
2023-04-23T08:08:09.250Z,13.37
2023-04-23T08:10:37.104Z,13.46
2023-04-23T08:13:07.488Z,13.37
2023-04-23T08:15:35.544Z,13.39
2023-04-23T08:18:04.175Z,13.27
2023-04-23T08:20:32.748Z,13.34
2023-04-23T08:23:00.753Z,13.32
2023-04-23T08:25:28.553Z,13.39
2023-04-23T08:27:56.458Z,13.58
2023-04-23T08:30:26.203Z,13.73
2023-04-23T08:32:54.884Z,13.80
2023-04-23T08:35:23.327Z,13.88
2023-04-23T08:37:51.244Z,13.96
2023-04-23T08:40:19.092Z,14.08
2023-04-23T08:42:51.732Z,14.20
2023-04-23T08:45:19.900Z,14.27
2023-04-23T08:47:49.265Z,14.28
2023-04-23T08:50:19.746Z,14.34
2023-04-23T08:52:51.463Z,14.38
2023-04-23T08:55:20.462Z,14.43
2023-04-23T08:57:49.697Z,14.47
2023-04-23T09:00:19.753Z,14.64
2023-04-23T09:02:50.460Z,14.73
2023-04-23T09:05:18.750Z,14.67
2023-04-23T09:07:46.787Z,14.90
2023-04-23T09:10:17.885Z,14.87
2023-04-23T09:12:48.020Z,14.81
2023-04-23T09:15:16.013Z,15.09
2023-04-23T09:17:47.217Z,15.19
2023-04-23T09:20:17.106Z,15.27
2023-04-23T09:22:47.740Z,15.28
2023-04-23T09:25:19.618Z,15.38
2023-04-23T09:27:48.118Z,15.37
2023-04-23T09:30:17.436Z,15.27
2023-04-23T09:32:46.985Z,15.34
2023-04-23T09:35:19.838Z,15.41
2023-04-23T09:37:49.603Z,15.49
2023-04-23T09:40:20.054Z,15.38
2023-04-23T09:42:50.026Z,15.46
2023-04-23T09:45:18.178Z,15.42
2023-04-23T09:47:51.775Z,15.42
2023-04-23T09:50:22.311Z,15.59
2023-04-23T09:52:56.064Z,15.70
2023-04-23T09:55:29.601Z,15.78
2023-04-23T09:57:57.647Z,15.84
2023-04-23T10:00:29.249Z,15.84
2023-04-23T10:02:57.335Z,15.93
2023-04-23T10:05:33.941Z,16.09
2023-04-23T10:08:10.314Z,16.04
2023-04-23T10:10:54.569Z,15.99
2023-04-23T10:13:28.510Z,15.96
2023-04-23T10:16:07.257Z,16.06
2023-04-23T10:18:42.639Z,15.95
2023-04-23T10:21:13.551Z,16.02
2023-04-23T10:23:44.238Z,16.06
2023-04-23T10:26:16.043Z,16.08
2023-04-23T10:28:47.925Z,16.09
2023-04-23T10:31:16.323Z,16.03
2023-04-23T10:33:55.916Z,16.03
2023-04-23T10:36:29.116Z,16.19
2023-04-23T10:39:00.775Z,16.28
2023-04-23T10:41:36.339Z,16.27
2023-04-23T10:44:04.735Z,16.30
2023-04-23T10:46:35.350Z,16.28
2023-04-23T10:49:14.314Z,16.42
2023-04-23T10:54:15.910Z,16.44
2023-04-23T10:56:44.543Z,16.54
2023-04-23T10:59:21.869Z,16.59
2023-04-23T11:01:51.470Z,16.47
2023-04-23T11:04:24.521Z,16.46
2023-04-23T11:06:56.289Z,16.58
2023-04-23T11:09:31.990Z,16.59
2023-04-23T11:12:01.501Z,16.66
2023-04-23T11:14:37.171Z,16.57
2023-04-23T11:17:06.749Z,16.49
2023-04-23T11:19:37.706Z,16.63
2023-04-23T11:22:08.496Z,16.85
2023-04-23T11:24:42.415Z,16.83
2023-04-23T11:27:11.928Z,16.89
2023-04-23T11:29:41.569Z,16.99
2023-04-23T11:32:12.952Z,17.04
2023-04-23T11:34:43.539Z,17.06
2023-04-23T11:37:13.809Z,17.04
2023-04-23T11:39:44.252Z,17.01
2023-04-23T11:42:13.182Z,17.01
2023-04-23T11:44:41.769Z,16.98
2023-04-23T11:47:11.095Z,16.94
2023-04-23T11:49:39.603Z,17.09
2023-04-23T11:52:08.114Z,17.15
2023-04-23T11:54:37.358Z,17.09
2023-04-23T11:57:05.935Z,17.07
2023-04-23T11:59:33.891Z,17.12
2023-04-23T12:02:01.778Z,17.15
2023-04-23T12:04:30.764Z,17.20
2023-04-23T12:07:00.003Z,17.15
2023-04-23T12:09:29.551Z,17.22
2023-04-23T12:11:59.401Z,17.26
2023-04-23T12:14:30.049Z,17.27
2023-04-23T12:16:59.632Z,17.47
2023-04-23T12:19:29.372Z,17.49
2023-04-23T12:21:58.964Z,17.55
2023-04-23T12:24:29.532Z,17.61
2023-04-23T12:27:01.012Z,17.66
2023-04-23T12:29:31.078Z,17.79
2023-04-23T12:32:00.269Z,17.75
2023-04-23T12:34:28.245Z,17.81
2023-04-23T12:36:57.299Z,17.90
2023-04-23T12:39:33.810Z,17.95
2023-04-23T12:42:05.115Z,17.89
2023-04-23T12:44:34.620Z,17.94
2023-04-23T12:47:04.885Z,18.07
2023-04-23T12:49:34.008Z,18.05
2023-04-23T12:52:03.260Z,17.88
2023-04-23T12:54:32.427Z,17.71
2023-04-23T12:57:01.987Z,17.83
2023-04-23T12:59:31.684Z,17.82
2023-04-23T13:02:02.018Z,17.77
2023-04-23T13:04:30.289Z,17.75
2023-04-23T13:06:58.450Z,17.94
2023-04-23T13:09:27.983Z,17.87
2023-04-23T13:11:56.817Z,17.94
2023-04-23T13:14:24.716Z,18.07
2023-04-23T13:16:53.910Z,18.02
2023-04-23T13:19:21.805Z,17.98
2023-04-23T13:21:49.640Z,17.94
2023-04-23T13:24:17.507Z,17.88
2023-04-23T13:26:45.527Z,17.94
2023-04-23T13:29:13.467Z,17.85
2023-04-23T13:31:41.349Z,17.89
2023-04-23T13:34:10.633Z,17.93
2023-04-23T13:36:41.233Z,17.88
2023-04-23T13:39:09.955Z,18.07
2023-04-23T13:41:37.823Z,18.15
2023-04-23T13:44:05.662Z,18.07
2023-04-23T13:46:33.736Z,18.18
2023-04-23T13:49:02.132Z,18.24
2023-04-23T13:51:34.648Z,18.40
2023-04-23T13:54:03.952Z,18.46
2023-04-23T13:56:32.251Z,18.42
2023-04-23T14:01:33.135Z,18.29
2023-04-23T14:04:01.098Z,18.41
2023-04-23T14:06:29.030Z,18.43
2023-04-23T14:08:58.198Z,18.33
2023-04-23T14:11:26.105Z,18.31
2023-04-23T14:13:53.944Z,18.26
2023-04-23T14:16:21.824Z,18.31
2023-04-23T14:18:49.722Z,18.41
2023-04-23T14:21:18.124Z,18.41
2023-04-23T14:23:51.514Z,18.46
2023-04-23T14:26:44.813Z,18.48
2023-04-23T14:29:24.266Z,18.44
2023-04-23T14:31:52.251Z,18.41
2023-04-23T14:34:20.100Z,18.43
2023-04-23T14:36:49.233Z,18.42
2023-04-23T14:39:17.616Z,18.41
2023-04-23T14:41:46.918Z,18.35
2023-04-23T14:44:14.746Z,18.23
2023-04-23T14:46:42.563Z,18.14
2023-04-23T14:49:10.536Z,18.14
2023-04-23T14:51:38.414Z,18.14
2023-04-23T14:54:07.186Z,18.16
2023-04-23T14:56:35.167Z,18.15
2023-04-23T14:59:04.877Z,18.12
2023-04-23T15:01:32.763Z,18.08
2023-04-23T15:04:00.774Z,18.05
2023-04-23T15:06:28.717Z,17.96
2023-04-23T15:08:56.562Z,17.93
2023-04-23T15:11:24.419Z,17.90
2023-04-23T15:13:58.361Z,17.85
2023-04-23T15:16:47.471Z,17.83
2023-04-23T15:19:17.787Z,17.83
2023-04-23T15:21:46.118Z,17.78
2023-04-23T15:24:14.075Z,17.72
2023-04-23T15:26:42.171Z,17.45
2023-04-23T15:29:10.628Z,16.96
2023-04-23T15:31:40.110Z,16.84
2023-04-23T15:34:09.159Z,16.67
2023-04-23T15:36:38.201Z,16.57
2023-04-23T15:39:07.052Z,16.58
2023-04-23T15:41:37.495Z,16.62
2023-04-23T15:44:10.781Z,16.62
2023-04-23T15:46:40.201Z,16.68
2023-04-23T15:49:08.190Z,16.65
2023-04-23T15:51:36.157Z,16.65
2023-04-23T15:54:05.913Z,16.64
2023-04-23T15:56:33.755Z,16.47
2023-04-23T15:59:01.584Z,16.49
2023-04-23T16:01:29.661Z,16.34
2023-04-23T16:06:29.744Z,16.32
2023-04-23T16:08:57.662Z,16.22
2023-04-23T16:11:27.623Z,16.14
2023-04-23T16:13:57.024Z,16.08
2023-04-23T16:16:25.043Z,16.02
2023-04-23T16:18:53.475Z,15.85
2023-04-23T16:21:23.256Z,15.65
2023-04-23T16:23:51.303Z,15.17
2023-04-23T16:26:19.208Z,14.87
2023-04-23T16:28:51.986Z,14.77
2023-04-23T16:31:29.805Z,14.72
2023-04-23T16:33:57.679Z,14.51
2023-04-23T16:36:27.085Z,14.37
2023-04-23T16:38:54.945Z,14.41
2023-04-23T16:41:22.879Z,14.38
2023-04-23T16:43:50.784Z,14.35
2023-04-23T16:46:18.878Z,14.42
2023-04-23T16:48:47.173Z,14.37
2023-04-23T16:51:15.162Z,14.33
2023-04-23T16:53:44.337Z,14.28
2023-04-23T16:56:12.372Z,14.22
2023-04-23T16:58:40.254Z,14.12
2023-04-23T17:01:08.167Z,14.04
2023-04-23T17:03:37.099Z,14.04
2023-04-23T17:06:11.201Z,14.02
2023-04-23T17:08:39.419Z,13.99
2023-04-23T17:11:09.002Z,13.98
2023-04-23T17:13:37.336Z,13.88
2023-04-23T17:16:05.126Z,13.86
2023-04-23T17:18:32.991Z,13.84
2023-04-23T17:21:01.127Z,13.86
2023-04-23T17:23:29.050Z,13.83
2023-04-23T17:25:57.031Z,13.79
2023-04-23T17:28:26.276Z,13.70
2023-04-23T17:30:55.884Z,13.70
2023-04-23T17:33:24.812Z,13.69
2023-04-23T17:35:55.235Z,13.60
2023-04-23T17:38:24.658Z,13.60
2023-04-23T17:40:53.772Z,13.52
2023-04-23T17:43:22.349Z,13.52
2023-04-23T17:45:51.754Z,13.48
2023-04-23T17:48:21.414Z,13.48
2023-04-23T17:50:51.238Z,13.46
2023-04-23T17:53:19.329Z,13.38
2023-04-23T17:55:47.236Z,13.31
2023-04-23T17:58:15.173Z,13.32
2023-04-23T18:00:44.123Z,13.32
2023-04-23T18:03:16.669Z,13.32
2023-04-23T18:05:45.047Z,13.29
2023-04-23T18:08:12.903Z,13.26
2023-04-23T18:10:41.086Z,13.24
2023-04-23T18:13:11.567Z,13.27
2023-04-23T18:15:40.971Z,13.23
2023-04-23T18:18:08.978Z,13.21
2023-04-23T18:20:38.980Z,13.17
2023-04-23T18:23:08.056Z,13.09
2023-04-23T18:25:36.033Z,13.01
2023-04-23T18:28:03.885Z,12.97
2023-04-23T18:30:31.919Z,12.92
2023-04-23T18:33:07.744Z,12.88
2023-04-23T18:35:35.764Z,12.85
2023-04-23T18:38:11.509Z,12.82
2023-04-23T18:40:39.403Z,12.77
2023-04-23T18:43:07.335Z,12.75
2023-04-23T18:45:35.776Z,12.71
2023-04-23T18:48:25.448Z,12.70
2023-04-23T18:50:57.817Z,12.67
2023-04-23T18:53:27.204Z,12.67
2023-04-23T18:55:55.090Z,12.67
2023-04-23T18:58:23.057Z,12.73
2023-04-23T19:00:50.862Z,12.71
2023-04-23T19:03:25.882Z,12.67
2023-04-23T19:05:54.934Z,12.65
2023-04-23T19:08:28.333Z,12.61
2023-04-23T19:10:58.187Z,12.67
2023-04-23T19:13:26.656Z,12.61
2023-04-23T19:15:54.953Z,12.53
2023-04-23T19:18:23.064Z,12.43
2023-04-23T19:20:51.079Z,12.37
2023-04-23T19:23:18.923Z,12.27
2023-04-23T19:25:46.911Z,12.24
2023-04-23T19:28:16.220Z,12.21
2023-04-23T19:30:44.190Z,12.10
2023-04-23T19:33:12.185Z,12.08
2023-04-23T19:35:40.499Z,12.06
2023-04-23T19:38:08.542Z,11.98
2023-04-23T19:40:36.395Z,11.93
2023-04-23T19:43:04.493Z,11.87
2023-04-23T19:45:34.207Z,11.84
2023-04-23T19:48:04.511Z,11.84
2023-04-23T19:50:32.571Z,11.81
2023-04-23T19:53:00.483Z,11.74
2023-04-23T19:55:28.639Z,11.69
2023-04-23T19:57:58.373Z,11.70
2023-04-23T20:00:29.849Z,11.70
2023-04-23T20:02:59.124Z,11.60
2023-04-23T20:05:27.859Z,11.56
2023-04-23T20:07:56.210Z,11.57
2023-04-23T20:10:29.087Z,11.55
2023-04-23T20:12:58.797Z,11.53
2023-04-23T20:15:27.114Z,11.53
2023-04-23T20:17:55.106Z,11.47
2023-04-23T20:20:25.665Z,11.43
2023-04-23T20:22:53.712Z,11.48
2023-04-23T20:25:25.533Z,11.39
2023-04-23T20:27:54.158Z,11.39
2023-04-23T20:30:21.980Z,11.36
2023-04-23T20:32:49.859Z,11.26
2023-04-23T20:35:17.797Z,11.27
2023-04-23T20:37:47.818Z,11.24
2023-04-23T20:40:15.699Z,11.25
2023-04-23T20:42:43.817Z,11.20
2023-04-23T20:45:14.283Z,11.21
2023-04-23T20:47:44.358Z,11.21
2023-04-23T20:50:12.495Z,11.21
2023-04-23T20:52:40.353Z,11.09
2023-04-23T20:55:10.684Z,11.14
2023-04-23T20:57:38.536Z,11.09
2023-04-23T21:00:11.792Z,11.09
2023-04-23T21:02:39.875Z,11.10
2023-04-23T21:05:08.936Z,11.08
2023-04-23T21:07:36.935Z,11.00
2023-04-23T21:10:04.932Z,11.07
2023-04-23T21:12:34.374Z,10.99
2023-04-23T21:15:02.456Z,11.02
2023-04-23T21:17:30.338Z,10.97
2023-04-23T21:19:58.242Z,10.92
2023-04-23T21:22:26.274Z,10.96
2023-04-23T21:24:54.170Z,10.96
2023-04-23T21:27:22.165Z,10.89
2023-04-23T21:29:52.442Z,10.86
2023-04-23T21:32:20.364Z,10.75
2023-04-23T21:34:48.208Z,10.85
2023-04-23T21:37:16.085Z,10.84
2023-04-23T21:39:44.186Z,10.81
2023-04-23T21:42:12.192Z,10.84
2023-04-23T21:44:40.776Z,10.83
2023-04-23T21:47:10.405Z,10.78
2023-04-23T21:49:38.286Z,10.78
2023-04-23T21:52:06.560Z,10.81
2023-04-23T21:54:34.337Z,10.75
2023-04-23T21:57:02.725Z,10.72
2023-04-23T21:59:30.953Z,10.66
2023-04-23T22:01:59.332Z,10.68
2023-04-23T22:04:29.367Z,10.69
2023-04-23T22:07:02.332Z,10.67
2023-04-23T22:09:30.277Z,10.64
2023-04-23T22:12:02.148Z,10.57
2023-04-23T22:14:30.744Z,10.60
2023-04-23T22:16:59.456Z,10.62
2023-04-23T22:19:29.296Z,10.65
2023-04-23T22:21:57.113Z,10.57
2023-04-23T22:24:25.214Z,10.58
2023-04-23T22:26:53.178Z,10.58
2023-04-23T22:29:21.951Z,10.58
2023-04-23T22:31:49.863Z,10.58
2023-04-23T22:34:19.341Z,10.56
2023-04-23T22:36:48.609Z,10.55
2023-04-23T22:39:16.473Z,10.55
2023-04-23T22:41:44.308Z,10.52
2023-04-23T22:44:12.192Z,10.55
2023-04-23T22:46:40.482Z,10.51
2023-04-23T22:49:11.050Z,10.47
2023-04-23T22:51:39.675Z,10.45
2023-04-23T22:54:08.986Z,10.47
2023-04-23T22:56:37.564Z,10.49
2023-04-23T22:59:05.999Z,10.48
2023-04-23T23:01:33.891Z,10.44
2023-04-23T23:04:01.915Z,10.46
2023-04-23T23:06:29.789Z,10.48
2023-04-23T23:08:57.953Z,10.51
2023-04-23T23:11:28.758Z,10.42
2023-04-23T23:13:57.279Z,10.43
2023-04-23T23:16:25.508Z,10.45
2023-04-23T23:18:53.898Z,10.41
2023-04-23T23:21:21.937Z,10.44
2023-04-23T23:23:49.933Z,10.42
2023-04-23T23:26:17.873Z,10.43
2023-04-23T23:28:47.199Z,10.42
2023-04-23T23:31:15.273Z,10.44
2023-04-23T23:33:43.155Z,10.45
2023-04-23T23:36:12.021Z,10.50
2023-04-23T23:38:39.845Z,10.46
2023-04-23T23:41:07.661Z,10.42
2023-04-23T23:43:35.454Z,10.42
2023-04-23T23:46:04.936Z,10.41
2023-04-23T23:48:32.894Z,10.40
2023-04-23T23:51:00.746Z,10.44
2023-04-23T23:53:28.652Z,10.47
2023-04-23T23:55:56.506Z,10.44
2023-04-23T23:58:24.280Z,10.45
